sensor_id;sensor_type;location;lat;lon;timestamp;P1;durP1;ratioP1;P2;durP2;ratioP2
16854;SDS011;8543;54.522;18.550;2022-08-23T00:01:54;5.00;;;2.20;;
16854;SDS011;8543;54.522;18.550;2022-08-23T00:04:23;5.10;;;2.10;;
16854;SDS011;8543;54.522;18.550;2022-08-23T00:06:50;3.40;;;1.90;;
16854;SDS011;8543;54.522;18.550;2022-08-23T00:09:17;7.40;;;2.20;;
16854;SDS011;8543;54.522;18.550;2022-08-23T00:11:45;3.60;;;2.10;;
16854;SDS011;8543;54.522;18.550;2022-08-23T00:14:32;4.20;;;2.20;;
16854;SDS011;8543;54.522;18.550;2022-08-23T00:16:58;5.20;;;2.10;;
16854;SDS011;8543;54.522;18.550;2022-08-23T00:19:24;3.80;;;2.20;;
16854;SDS011;8543;54.522;18.550;2022-08-23T00:21:51;2.90;;;1.80;;
16854;SDS011;8543;54.522;18.550;2022-08-23T00:24:18;4.10;;;2.30;;
16854;SDS011;8543;54.522;18.550;2022-08-23T00:27:01;4.60;;;1.90;;
16854;SDS011;8543;54.522;18.550;2022-08-23T00:29:40;5.10;;;2.00;;
16854;SDS011;8543;54.522;18.550;2022-08-23T00:32:10;5.10;;;2.30;;
16854;SDS011;8543;54.522;18.550;2022-08-23T00:34:38;5.40;;;2.30;;
16854;SDS011;8543;54.522;18.550;2022-08-23T00:37:04;4.60;;;2.10;;
16854;SDS011;8543;54.522;18.550;2022-08-23T00:39:30;4.50;;;2.00;;
16854;SDS011;8543;54.522;18.550;2022-08-23T00:41:57;4.50;;;2.30;;
16854;SDS011;8543;54.522;18.550;2022-08-23T00:44:51;5.40;;;2.30;;
16854;SDS011;8543;54.522;18.550;2022-08-23T00:47:36;7.50;;;2.50;;
16854;SDS011;8543;54.522;18.550;2022-08-23T00:53:15;5.30;;;2.40;;
16854;SDS011;8543;54.522;18.550;2022-08-23T00:55:43;6.30;;;2.10;;
16854;SDS011;8543;54.522;18.550;2022-08-23T00:58:10;6.10;;;2.10;;
16854;SDS011;8543;54.522;18.550;2022-08-23T01:00:37;3.70;;;2.00;;
16854;SDS011;8543;54.522;18.550;2022-08-23T01:03:04;5.80;;;2.20;;
16854;SDS011;8543;54.522;18.550;2022-08-23T01:05:35;4.40;;;2.20;;
16854;SDS011;8543;54.522;18.550;2022-08-23T01:08:08;4.00;;;2.00;;
16854;SDS011;8543;54.522;18.550;2022-08-23T01:10:35;5.40;;;2.40;;
16854;SDS011;8543;54.522;18.550;2022-08-23T01:13:14;5.20;;;2.40;;
16854;SDS011;8543;54.522;18.550;2022-08-23T01:15:49;5.70;;;3.10;;
16854;SDS011;8543;54.522;18.550;2022-08-23T01:20:53;5.30;;;2.40;;
16854;SDS011;8543;54.522;18.550;2022-08-23T01:23:36;8.90;;;3.90;;
16854;SDS011;8543;54.522;18.550;2022-08-23T01:26:05;5.00;;;2.30;;
16854;SDS011;8543;54.522;18.550;2022-08-23T01:28:32;4.20;;;2.20;;
16854;SDS011;8543;54.522;18.550;2022-08-23T01:30:58;5.30;;;2.10;;
16854;SDS011;8543;54.522;18.550;2022-08-23T01:33:24;6.10;;;2.60;;
16854;SDS011;8543;54.522;18.550;2022-08-23T01:35:56;6.10;;;2.50;;
16854;SDS011;8543;54.522;18.550;2022-08-23T01:38:22;5.40;;;2.30;;
16854;SDS011;8543;54.522;18.550;2022-08-23T01:40:49;5.20;;;2.70;;
16854;SDS011;8543;54.522;18.550;2022-08-23T01:43:15;4.10;;;2.50;;
16854;SDS011;8543;54.522;18.550;2022-08-23T01:45:43;5.00;;;2.50;;
16854;SDS011;8543;54.522;18.550;2022-08-23T01:48:09;4.70;;;2.90;;
16854;SDS011;8543;54.522;18.550;2022-08-23T01:50:34;5.70;;;2.60;;
16854;SDS011;8543;54.522;18.550;2022-08-23T01:53:00;5.70;;;2.70;;
16854;SDS011;8543;54.522;18.550;2022-08-23T01:55:25;5.70;;;3.00;;
16854;SDS011;8543;54.522;18.550;2022-08-23T01:57:52;5.20;;;2.70;;
16854;SDS011;8543;54.522;18.550;2022-08-23T02:00:22;5.40;;;2.30;;
16854;SDS011;8543;54.522;18.550;2022-08-23T02:02:50;6.30;;;2.60;;
16854;SDS011;8543;54.522;18.550;2022-08-23T02:05:17;4.90;;;2.60;;
16854;SDS011;8543;54.522;18.550;2022-08-23T02:07:43;7.50;;;2.70;;
16854;SDS011;8543;54.522;18.550;2022-08-23T02:10:09;6.10;;;2.80;;
16854;SDS011;8543;54.522;18.550;2022-08-23T02:12:35;5.70;;;2.70;;
16854;SDS011;8543;54.522;18.550;2022-08-23T02:15:01;7.30;;;2.90;;
16854;SDS011;8543;54.522;18.550;2022-08-23T02:17:27;6.70;;;2.80;;
16854;SDS011;8543;54.522;18.550;2022-08-23T02:19:53;3.60;;;2.40;;
16854;SDS011;8543;54.522;18.550;2022-08-23T02:22:19;4.20;;;2.50;;
16854;SDS011;8543;54.522;18.550;2022-08-23T02:24:45;4.20;;;2.60;;
16854;SDS011;8543;54.522;18.550;2022-08-23T02:27:12;7.30;;;2.80;;
16854;SDS011;8543;54.522;18.550;2022-08-23T02:29:39;7.10;;;3.00;;
16854;SDS011;8543;54.522;18.550;2022-08-23T02:32:06;6.30;;;3.00;;
16854;SDS011;8543;54.522;18.550;2022-08-23T02:34:33;5.70;;;2.90;;
16854;SDS011;8543;54.522;18.550;2022-08-23T02:36:58;5.00;;;2.90;;
16854;SDS011;8543;54.522;18.550;2022-08-23T02:39:24;4.90;;;2.50;;
16854;SDS011;8543;54.522;18.550;2022-08-23T02:41:50;8.40;;;3.10;;
16854;SDS011;8543;54.522;18.550;2022-08-23T02:44:15;6.40;;;2.80;;
16854;SDS011;8543;54.522;18.550;2022-08-23T02:46:41;6.20;;;2.90;;
16854;SDS011;8543;54.522;18.550;2022-08-23T02:49:07;7.00;;;3.00;;
16854;SDS011;8543;54.522;18.550;2022-08-23T02:51:33;6.40;;;2.90;;
16854;SDS011;8543;54.522;18.550;2022-08-23T02:53:58;5.40;;;2.80;;
16854;SDS011;8543;54.522;18.550;2022-08-23T02:56:23;6.40;;;2.70;;
16854;SDS011;8543;54.522;18.550;2022-08-23T02:58:50;8.50;;;3.00;;
16854;SDS011;8543;54.522;18.550;2022-08-23T03:01:16;9.60;;;3.60;;
16854;SDS011;8543;54.522;18.550;2022-08-23T03:03:43;4.60;;;2.70;;
16854;SDS011;8543;54.522;18.550;2022-08-23T03:06:09;5.50;;;3.10;;
16854;SDS011;8543;54.522;18.550;2022-08-23T03:08:36;5.50;;;3.00;;
16854;SDS011;8543;54.522;18.550;2022-08-23T03:11:01;7.10;;;3.30;;
16854;SDS011;8543;54.522;18.550;2022-08-23T03:13:26;5.90;;;3.10;;
16854;SDS011;8543;54.522;18.550;2022-08-23T03:15:52;7.10;;;3.10;;
16854;SDS011;8543;54.522;18.550;2022-08-23T03:18:17;6.20;;;2.70;;
16854;SDS011;8543;54.522;18.550;2022-08-23T03:20:43;5.20;;;2.80;;
16854;SDS011;8543;54.522;18.550;2022-08-23T03:23:09;6.00;;;2.70;;
16854;SDS011;8543;54.522;18.550;2022-08-23T03:25:35;7.40;;;3.20;;
16854;SDS011;8543;54.522;18.550;2022-08-23T03:28:03;5.40;;;2.90;;
16854;SDS011;8543;54.522;18.550;2022-08-23T03:30:29;5.50;;;2.90;;
16854;SDS011;8543;54.522;18.550;2022-08-23T03:32:54;7.30;;;3.20;;
16854;SDS011;8543;54.522;18.550;2022-08-23T03:35:20;5.70;;;3.20;;
16854;SDS011;8543;54.522;18.550;2022-08-23T03:37:45;6.80;;;3.40;;
16854;SDS011;8543;54.522;18.550;2022-08-23T03:40:11;5.90;;;3.30;;
16854;SDS011;8543;54.522;18.550;2022-08-23T03:42:36;6.00;;;3.10;;
16854;SDS011;8543;54.522;18.550;2022-08-23T03:45:02;6.80;;;3.40;;
16854;SDS011;8543;54.522;18.550;2022-08-23T03:47:28;8.00;;;3.70;;
16854;SDS011;8543;54.522;18.550;2022-08-23T03:49:53;8.10;;;3.30;;
16854;SDS011;8543;54.522;18.550;2022-08-23T03:52:19;6.70;;;3.50;;
16854;SDS011;8543;54.522;18.550;2022-08-23T03:54:44;7.40;;;3.50;;
16854;SDS011;8543;54.522;18.550;2022-08-23T03:57:10;7.00;;;3.30;;
16854;SDS011;8543;54.522;18.550;2022-08-23T03:59:37;8.60;;;3.60;;
16854;SDS011;8543;54.522;18.550;2022-08-23T04:02:03;7.20;;;3.70;;
16854;SDS011;8543;54.522;18.550;2022-08-23T04:04:29;10.10;;;3.80;;
16854;SDS011;8543;54.522;18.550;2022-08-23T04:06:55;7.50;;;3.10;;
16854;SDS011;8543;54.522;18.550;2022-08-23T04:09:20;8.10;;;3.30;;
16854;SDS011;8543;54.522;18.550;2022-08-23T04:11:46;9.00;;;3.40;;
16854;SDS011;8543;54.522;18.550;2022-08-23T04:14:12;5.80;;;2.80;;
16854;SDS011;8543;54.522;18.550;2022-08-23T04:16:38;8.50;;;3.40;;
16854;SDS011;8543;54.522;18.550;2022-08-23T04:19:08;8.10;;;4.10;;
16854;SDS011;8543;54.522;18.550;2022-08-23T04:21:37;7.30;;;3.50;;
16854;SDS011;8543;54.522;18.550;2022-08-23T04:24:03;10.70;;;3.80;;
16854;SDS011;8543;54.522;18.550;2022-08-23T04:26:29;10.00;;;3.70;;
16854;SDS011;8543;54.522;18.550;2022-08-23T04:28:54;10.00;;;3.80;;
16854;SDS011;8543;54.522;18.550;2022-08-23T04:31:21;7.50;;;3.80;;
16854;SDS011;8543;54.522;18.550;2022-08-23T04:33:47;9.10;;;3.40;;
16854;SDS011;8543;54.522;18.550;2022-08-23T04:36:13;8.50;;;3.60;;
16854;SDS011;8543;54.522;18.550;2022-08-23T04:38:39;6.80;;;3.40;;
16854;SDS011;8543;54.522;18.550;2022-08-23T04:41:04;7.20;;;3.70;;
16854;SDS011;8543;54.522;18.550;2022-08-23T04:43:59;10.30;;;4.50;;
16854;SDS011;8543;54.522;18.550;2022-08-23T04:46:24;6.40;;;3.70;;
16854;SDS011;8543;54.522;18.550;2022-08-23T04:48:50;7.90;;;3.60;;
16854;SDS011;8543;54.522;18.550;2022-08-23T04:51:15;7.80;;;3.60;;
16854;SDS011;8543;54.522;18.550;2022-08-23T04:53:41;6.60;;;3.60;;
16854;SDS011;8543;54.522;18.550;2022-08-23T04:56:08;8.10;;;3.70;;
16854;SDS011;8543;54.522;18.550;2022-08-23T04:58:34;7.10;;;3.60;;
16854;SDS011;8543;54.522;18.550;2022-08-23T05:01:01;7.00;;;4.00;;
16854;SDS011;8543;54.522;18.550;2022-08-23T05:03:28;6.60;;;3.60;;
16854;SDS011;8543;54.522;18.550;2022-08-23T05:05:56;9.80;;;4.00;;
16854;SDS011;8543;54.522;18.550;2022-08-23T05:08:22;8.60;;;4.00;;
16854;SDS011;8543;54.522;18.550;2022-08-23T05:10:48;8.50;;;4.00;;
16854;SDS011;8543;54.522;18.550;2022-08-23T05:13:13;12.80;;;4.40;;
16854;SDS011;8543;54.522;18.550;2022-08-23T05:15:39;9.30;;;4.00;;
16854;SDS011;8543;54.522;18.550;2022-08-23T05:18:04;8.90;;;3.90;;
16854;SDS011;8543;54.522;18.550;2022-08-23T05:20:30;8.00;;;4.10;;
16854;SDS011;8543;54.522;18.550;2022-08-23T05:22:56;8.80;;;4.30;;
16854;SDS011;8543;54.522;18.550;2022-08-23T05:25:21;6.60;;;4.00;;
16854;SDS011;8543;54.522;18.550;2022-08-23T05:27:46;8.80;;;4.10;;
16854;SDS011;8543;54.522;18.550;2022-08-23T05:30:12;7.10;;;3.90;;
16854;SDS011;8543;54.522;18.550;2022-08-23T05:32:37;8.30;;;4.20;;
16854;SDS011;8543;54.522;18.550;2022-08-23T05:35:03;8.70;;;4.00;;
16854;SDS011;8543;54.522;18.550;2022-08-23T05:37:29;7.30;;;4.10;;
16854;SDS011;8543;54.522;18.550;2022-08-23T05:39:54;8.80;;;4.20;;
16854;SDS011;8543;54.522;18.550;2022-08-23T05:42:20;8.60;;;3.80;;
16854;SDS011;8543;54.522;18.550;2022-08-23T05:44:46;8.90;;;3.70;;
16854;SDS011;8543;54.522;18.550;2022-08-23T05:47:12;7.80;;;3.50;;
16854;SDS011;8543;54.522;18.550;2022-08-23T05:49:39;4.40;;;3.10;;
16854;SDS011;8543;54.522;18.550;2022-08-23T05:52:05;5.50;;;2.70;;
16854;SDS011;8543;54.522;18.550;2022-08-23T05:54:31;6.70;;;3.00;;
16854;SDS011;8543;54.522;18.550;2022-08-23T05:56:57;6.20;;;3.30;;
16854;SDS011;8543;54.522;18.550;2022-08-23T05:59:23;6.00;;;3.10;;
16854;SDS011;8543;54.522;18.550;2022-08-23T06:01:48;7.60;;;3.10;;
16854;SDS011;8543;54.522;18.550;2022-08-23T06:04:14;5.80;;;3.00;;
16854;SDS011;8543;54.522;18.550;2022-08-23T06:06:40;8.60;;;3.20;;
16854;SDS011;8543;54.522;18.550;2022-08-23T06:09:07;8.50;;;3.30;;
16854;SDS011;8543;54.522;18.550;2022-08-23T06:11:33;6.70;;;3.10;;
16854;SDS011;8543;54.522;18.550;2022-08-23T06:13:59;6.50;;;3.20;;
16854;SDS011;8543;54.522;18.550;2022-08-23T06:16:30;6.80;;;3.10;;
16854;SDS011;8543;54.522;18.550;2022-08-23T06:18:57;8.40;;;3.50;;
16854;SDS011;8543;54.522;18.550;2022-08-23T06:21:25;6.30;;;3.30;;
16854;SDS011;8543;54.522;18.550;2022-08-23T06:23:51;7.10;;;3.60;;
16854;SDS011;8543;54.522;18.550;2022-08-23T06:26:21;6.10;;;3.20;;
16854;SDS011;8543;54.522;18.550;2022-08-23T06:28:50;7.50;;;3.40;;
16854;SDS011;8543;54.522;18.550;2022-08-23T06:31:18;6.20;;;3.30;;
16854;SDS011;8543;54.522;18.550;2022-08-23T06:34:05;6.40;;;3.40;;
16854;SDS011;8543;54.522;18.550;2022-08-23T06:36:34;7.30;;;3.90;;
16854;SDS011;8543;54.522;18.550;2022-08-23T06:39:01;8.10;;;4.30;;
16854;SDS011;8543;54.522;18.550;2022-08-23T06:41:28;8.00;;;3.50;;
16854;SDS011;8543;54.522;18.550;2022-08-23T06:43:53;7.70;;;3.70;;
16854;SDS011;8543;54.522;18.550;2022-08-23T06:46:20;8.20;;;3.80;;
16854;SDS011;8543;54.522;18.550;2022-08-23T06:48:47;10.10;;;3.70;;
16854;SDS011;8543;54.522;18.550;2022-08-23T06:51:14;5.80;;;3.30;;
16854;SDS011;8543;54.522;18.550;2022-08-23T06:53:47;8.60;;;3.80;;
16854;SDS011;8543;54.522;18.550;2022-08-23T06:56:12;6.60;;;3.50;;
16854;SDS011;8543;54.522;18.550;2022-08-23T06:58:38;8.10;;;3.80;;
16854;SDS011;8543;54.522;18.550;2022-08-23T07:03:58;11.50;;;4.30;;
16854;SDS011;8543;54.522;18.550;2022-08-23T07:06:25;7.10;;;4.30;;
16854;SDS011;8543;54.522;18.550;2022-08-23T07:08:52;10.10;;;4.20;;
16854;SDS011;8543;54.522;18.550;2022-08-23T07:11:18;7.50;;;3.80;;
16854;SDS011;8543;54.522;18.550;2022-08-23T07:13:44;8.10;;;3.80;;
16854;SDS011;8543;54.522;18.550;2022-08-23T07:16:10;8.30;;;4.20;;
16854;SDS011;8543;54.522;18.550;2022-08-23T07:18:36;8.90;;;3.90;;
16854;SDS011;8543;54.522;18.550;2022-08-23T07:21:02;10.50;;;3.90;;
16854;SDS011;8543;54.522;18.550;2022-08-23T07:23:29;7.20;;;3.70;;
16854;SDS011;8543;54.522;18.550;2022-08-23T07:26:05;7.30;;;4.00;;
16854;SDS011;8543;54.522;18.550;2022-08-23T07:28:32;8.40;;;4.50;;
16854;SDS011;8543;54.522;18.550;2022-08-23T07:31:11;8.00;;;4.50;;
16854;SDS011;8543;54.522;18.550;2022-08-23T07:33:38;7.30;;;4.60;;
16854;SDS011;8543;54.522;18.550;2022-08-23T07:36:05;8.40;;;4.20;;
16854;SDS011;8543;54.522;18.550;2022-08-23T07:38:31;8.90;;;4.00;;
16854;SDS011;8543;54.522;18.550;2022-08-23T07:40:57;8.50;;;4.50;;
16854;SDS011;8543;54.522;18.550;2022-08-23T07:43:22;9.30;;;4.50;;
16854;SDS011;8543;54.522;18.550;2022-08-23T07:45:48;7.70;;;4.90;;
16854;SDS011;8543;54.522;18.550;2022-08-23T07:48:14;8.20;;;4.50;;
16854;SDS011;8543;54.522;18.550;2022-08-23T07:50:39;9.20;;;4.70;;
16854;SDS011;8543;54.522;18.550;2022-08-23T07:53:08;7.80;;;4.70;;
16854;SDS011;8543;54.522;18.550;2022-08-23T07:55:33;9.60;;;4.90;;
16854;SDS011;8543;54.522;18.550;2022-08-23T07:57:59;7.90;;;4.90;;
16854;SDS011;8543;54.522;18.550;2022-08-23T08:00:24;7.70;;;4.40;;
16854;SDS011;8543;54.522;18.550;2022-08-23T08:02:50;10.10;;;4.60;;
16854;SDS011;8543;54.522;18.550;2022-08-23T08:05:16;8.20;;;4.30;;
16854;SDS011;8543;54.522;18.550;2022-08-23T08:07:41;8.80;;;4.40;;
16854;SDS011;8543;54.522;18.550;2022-08-23T08:10:07;8.70;;;5.00;;
16854;SDS011;8543;54.522;18.550;2022-08-23T08:12:33;10.40;;;5.20;;
16854;SDS011;8543;54.522;18.550;2022-08-23T08:14:58;11.60;;;6.10;;
16854;SDS011;8543;54.522;18.550;2022-08-23T08:17:24;11.30;;;5.70;;
16854;SDS011;8543;54.522;18.550;2022-08-23T08:19:49;11.00;;;5.90;;
16854;SDS011;8543;54.522;18.550;2022-08-23T08:22:14;10.80;;;5.90;;
16854;SDS011;8543;54.522;18.550;2022-08-23T08:24:40;9.20;;;6.00;;
16854;SDS011;8543;54.522;18.550;2022-08-23T08:27:05;11.70;;;6.20;;
16854;SDS011;8543;54.522;18.550;2022-08-23T08:29:32;11.70;;;5.70;;
16854;SDS011;8543;54.522;18.550;2022-08-23T08:31:57;12.10;;;5.70;;
16854;SDS011;8543;54.522;18.550;2022-08-23T08:34:23;10.80;;;4.80;;
16854;SDS011;8543;54.522;18.550;2022-08-23T08:36:49;13.20;;;5.90;;
16854;SDS011;8543;54.522;18.550;2022-08-23T08:39:35;9.20;;;6.00;;
16854;SDS011;8543;54.522;18.550;2022-08-23T08:47:34;10.80;;;6.30;;
16854;SDS011;8543;54.522;18.550;2022-08-23T08:50:08;10.50;;;6.80;;
16854;SDS011;8543;54.522;18.550;2022-08-23T08:52:46;12.90;;;7.10;;
16854;SDS011;8543;54.522;18.550;2022-08-23T08:55:22;11.20;;;7.80;;
16854;SDS011;8543;54.522;18.550;2022-08-23T08:57:53;15.40;;;8.60;;
16854;SDS011;8543;54.522;18.550;2022-08-23T09:00:21;10.00;;;6.70;;
16854;SDS011;8543;54.522;18.550;2022-08-23T09:02:49;12.70;;;7.60;;
16854;SDS011;8543;54.522;18.550;2022-08-23T09:05:19;12.60;;;7.80;;
16854;SDS011;8543;54.522;18.550;2022-08-23T09:07:58;12.10;;;8.00;;
16854;SDS011;8543;54.522;18.550;2022-08-23T09:10:41;9.20;;;7.60;;
16854;SDS011;8543;54.522;18.550;2022-08-23T09:21:05;13.60;;;6.30;;
16854;SDS011;8543;54.522;18.550;2022-08-23T09:23:35;12.00;;;6.50;;
16854;SDS011;8543;54.522;18.550;2022-08-23T09:26:14;12.90;;;7.50;;
16854;SDS011;8543;54.522;18.550;2022-08-23T09:28:47;14.30;;;7.40;;
16854;SDS011;8543;54.522;18.550;2022-08-23T09:34:15;11.70;;;6.90;;
16854;SDS011;8543;54.522;18.550;2022-08-23T09:36:46;11.20;;;5.90;;
16854;SDS011;8543;54.522;18.550;2022-08-23T09:39:26;8.50;;;5.30;;
16854;SDS011;8543;54.522;18.550;2022-08-23T09:41:56;8.60;;;5.70;;
16854;SDS011;8543;54.522;18.550;2022-08-23T09:47:11;8.90;;;5.20;;
16854;SDS011;8543;54.522;18.550;2022-08-23T09:49:39;10.90;;;5.20;;
16854;SDS011;8543;54.522;18.550;2022-08-23T09:54:59;10.20;;;5.50;;
16854;SDS011;8543;54.522;18.550;2022-08-23T09:57:27;11.70;;;7.40;;
16854;SDS011;8543;54.522;18.550;2022-08-23T09:59:54;10.00;;;5.50;;
16854;SDS011;8543;54.522;18.550;2022-08-23T10:02:28;10.40;;;5.90;;
16854;SDS011;8543;54.522;18.550;2022-08-23T10:05:05;11.80;;;5.10;;
16854;SDS011;8543;54.522;18.550;2022-08-23T10:07:42;12.10;;;5.90;;
16854;SDS011;8543;54.522;18.550;2022-08-23T10:12:38;10.80;;;5.00;;
16854;SDS011;8543;54.522;18.550;2022-08-23T10:15:04;9.70;;;5.40;;
16854;SDS011;8543;54.522;18.550;2022-08-23T10:17:36;7.10;;;5.10;;
16854;SDS011;8543;54.522;18.550;2022-08-23T10:22:50;9.20;;;4.70;;
16854;SDS011;8543;54.522;18.550;2022-08-23T10:31:20;12.30;;;5.20;;
16854;SDS011;8543;54.522;18.550;2022-08-23T10:39:23;12.90;;;7.30;;
16854;SDS011;8543;54.522;18.550;2022-08-23T10:44:50;10.20;;;5.60;;
16854;SDS011;8543;54.522;18.550;2022-08-23T10:47:38;11.00;;;5.60;;
16854;SDS011;8543;54.522;18.550;2022-08-23T10:50:23;10.80;;;5.50;;
16854;SDS011;8543;54.522;18.550;2022-08-23T10:52:51;11.30;;;5.40;;
16854;SDS011;8543;54.522;18.550;2022-08-23T10:55:25;8.90;;;5.70;;
16854;SDS011;8543;54.522;18.550;2022-08-23T10:58:13;11.70;;;5.50;;
16854;SDS011;8543;54.522;18.550;2022-08-23T11:00:41;15.60;;;5.90;;
16854;SDS011;8543;54.522;18.550;2022-08-23T11:03:15;10.70;;;5.40;;
16854;SDS011;8543;54.522;18.550;2022-08-23T11:08:47;11.40;;;5.80;;
16854;SDS011;8543;54.522;18.550;2022-08-23T11:14:36;9.10;;;5.60;;
16854;SDS011;8543;54.522;18.550;2022-08-23T11:17:04;13.00;;;7.20;;
16854;SDS011;8543;54.522;18.550;2022-08-23T11:19:52;12.20;;;7.50;;
16854;SDS011;8543;54.522;18.550;2022-08-23T11:22:23;11.50;;;6.40;;
16854;SDS011;8543;54.522;18.550;2022-08-23T11:24:52;11.60;;;6.30;;
16854;SDS011;8543;54.522;18.550;2022-08-23T11:27:26;12.60;;;6.30;;
16854;SDS011;8543;54.522;18.550;2022-08-23T11:29:54;14.90;;;6.30;;
16854;SDS011;8543;54.522;18.550;2022-08-23T11:32:35;14.40;;;6.30;;
16854;SDS011;8543;54.522;18.550;2022-08-23T11:35:05;11.40;;;6.30;;
16854;SDS011;8543;54.522;18.550;2022-08-23T11:40:17;12.30;;;6.20;;
16854;SDS011;8543;54.522;18.550;2022-08-23T11:43:06;14.70;;;6.30;;
16854;SDS011;8543;54.522;18.550;2022-08-23T11:48:22;12.40;;;6.10;;
16854;SDS011;8543;54.522;18.550;2022-08-23T11:51:04;15.00;;;6.50;;
16854;SDS011;8543;54.522;18.550;2022-08-23T11:53:49;11.30;;;6.00;;
16854;SDS011;8543;54.522;18.550;2022-08-23T11:59:56;12.60;;;7.20;;
16854;SDS011;8543;54.522;18.550;2022-08-23T12:07:43;10.50;;;6.70;;
16854;SDS011;8543;54.522;18.550;2022-08-23T12:18:29;11.10;;;6.80;;
16854;SDS011;8543;54.522;18.550;2022-08-23T12:21:01;13.80;;;7.20;;
16854;SDS011;8543;54.522;18.550;2022-08-23T12:23:28;12.20;;;6.50;;
16854;SDS011;8543;54.522;18.550;2022-08-23T12:26:18;16.30;;;7.20;;
16854;SDS011;8543;54.522;18.550;2022-08-23T12:28:46;15.00;;;6.80;;
16854;SDS011;8543;54.522;18.550;2022-08-23T12:31:37;13.10;;;6.70;;
16854;SDS011;8543;54.522;18.550;2022-08-23T12:37:03;16.90;;;6.10;;
16854;SDS011;8543;54.522;18.550;2022-08-23T12:39:54;11.60;;;7.00;;
16854;SDS011;8543;54.522;18.550;2022-08-23T12:42:24;10.30;;;6.30;;
16854;SDS011;8543;54.522;18.550;2022-08-23T12:45:01;13.80;;;6.50;;
16854;SDS011;8543;54.522;18.550;2022-08-23T12:47:57;15.20;;;6.90;;
16854;SDS011;8543;54.522;18.550;2022-08-23T12:50:32;11.70;;;6.60;;
16854;SDS011;8543;54.522;18.550;2022-08-23T12:53:00;10.70;;;7.30;;
16854;SDS011;8543;54.522;18.550;2022-08-23T12:55:32;11.90;;;6.50;;
16854;SDS011;8543;54.522;18.550;2022-08-23T12:58:03;14.20;;;6.70;;
16854;SDS011;8543;54.522;18.550;2022-08-23T13:00:32;14.80;;;6.40;;
16854;SDS011;8543;54.522;18.550;2022-08-23T13:03:13;13.80;;;6.60;;
16854;SDS011;8543;54.522;18.550;2022-08-23T13:05:43;12.30;;;6.20;;
16854;SDS011;8543;54.522;18.550;2022-08-23T13:08:15;11.90;;;6.20;;
16854;SDS011;8543;54.522;18.550;2022-08-23T13:10:43;16.30;;;6.50;;
16854;SDS011;8543;54.522;18.550;2022-08-23T13:13:11;10.20;;;5.70;;
16854;SDS011;8543;54.522;18.550;2022-08-23T13:15:40;11.70;;;6.40;;
16854;SDS011;8543;54.522;18.550;2022-08-23T13:18:09;12.30;;;6.00;;
16854;SDS011;8543;54.522;18.550;2022-08-23T13:20:35;13.80;;;6.00;;
16854;SDS011;8543;54.522;18.550;2022-08-23T13:23:04;16.70;;;6.80;;
16854;SDS011;8543;54.522;18.550;2022-08-23T13:25:37;11.20;;;6.30;;
16854;SDS011;8543;54.522;18.550;2022-08-23T13:30:56;15.40;;;7.30;;
16854;SDS011;8543;54.522;18.550;2022-08-23T13:33:23;16.20;;;7.00;;
16854;SDS011;8543;54.522;18.550;2022-08-23T13:35:51;13.40;;;7.70;;
16854;SDS011;8543;54.522;18.550;2022-08-23T13:38:30;12.90;;;6.90;;
16854;SDS011;8543;54.522;18.550;2022-08-23T13:40:58;12.00;;;6.40;;
16854;SDS011;8543;54.522;18.550;2022-08-23T13:46:23;12.00;;;6.00;;
16854;SDS011;8543;54.522;18.550;2022-08-23T13:48:55;11.60;;;7.50;;
16854;SDS011;8543;54.522;18.550;2022-08-23T13:51:32;17.30;;;7.30;;
16854;SDS011;8543;54.522;18.550;2022-08-23T13:54:01;13.40;;;7.30;;
16854;SDS011;8543;54.522;18.550;2022-08-23T13:56:29;16.80;;;6.80;;
16854;SDS011;8543;54.522;18.550;2022-08-23T13:59:01;16.80;;;7.30;;
16854;SDS011;8543;54.522;18.550;2022-08-23T14:01:29;13.90;;;6.70;;
16854;SDS011;8543;54.522;18.550;2022-08-23T14:03:55;12.80;;;7.40;;
16854;SDS011;8543;54.522;18.550;2022-08-23T14:06:20;15.40;;;7.10;;
16854;SDS011;8543;54.522;18.550;2022-08-23T14:08:46;14.50;;;6.90;;
16854;SDS011;8543;54.522;18.550;2022-08-23T14:11:12;12.60;;;6.50;;
16854;SDS011;8543;54.522;18.550;2022-08-23T14:13:58;12.40;;;6.60;;
16854;SDS011;8543;54.522;18.550;2022-08-23T14:16:28;13.70;;;7.00;;
16854;SDS011;8543;54.522;18.550;2022-08-23T14:18:56;14.40;;;6.60;;
16854;SDS011;8543;54.522;18.550;2022-08-23T14:21:21;16.30;;;7.30;;
16854;SDS011;8543;54.522;18.550;2022-08-23T14:23:47;18.80;;;7.20;;
16854;SDS011;8543;54.522;18.550;2022-08-23T14:26:13;16.20;;;7.00;;
16854;SDS011;8543;54.522;18.550;2022-08-23T14:28:41;14.10;;;6.10;;
16854;SDS011;8543;54.522;18.550;2022-08-23T14:31:07;12.50;;;6.70;;
16854;SDS011;8543;54.522;18.550;2022-08-23T14:33:33;11.70;;;6.00;;
16854;SDS011;8543;54.522;18.550;2022-08-23T14:35:58;10.80;;;6.00;;
16854;SDS011;8543;54.522;18.550;2022-08-23T14:38:23;14.10;;;6.60;;
16854;SDS011;8543;54.522;18.550;2022-08-23T14:40:53;11.00;;;6.20;;
16854;SDS011;8543;54.522;18.550;2022-08-23T14:43:22;16.20;;;6.40;;
16854;SDS011;8543;54.522;18.550;2022-08-23T14:45:50;12.50;;;6.40;;
16854;SDS011;8543;54.522;18.550;2022-08-23T14:48:16;18.40;;;7.60;;
16854;SDS011;8543;54.522;18.550;2022-08-23T14:50:42;15.30;;;6.50;;
16854;SDS011;8543;54.522;18.550;2022-08-23T14:53:08;18.00;;;6.80;;
16854;SDS011;8543;54.522;18.550;2022-08-23T14:55:34;12.00;;;6.00;;
16854;SDS011;8543;54.522;18.550;2022-08-23T14:57:59;8.90;;;5.90;;
16854;SDS011;8543;54.522;18.550;2022-08-23T15:00:25;12.40;;;6.20;;
16854;SDS011;8543;54.522;18.550;2022-08-23T15:02:52;16.00;;;6.00;;
16854;SDS011;8543;54.522;18.550;2022-08-23T15:05:17;14.50;;;6.00;;
16854;SDS011;8543;54.522;18.550;2022-08-23T15:07:43;12.60;;;6.00;;
16854;SDS011;8543;54.522;18.550;2022-08-23T15:10:09;12.10;;;7.00;;
16854;SDS011;8543;54.522;18.550;2022-08-23T15:12:36;12.00;;;6.50;;
16854;SDS011;8543;54.522;18.550;2022-08-23T15:15:03;13.30;;;6.20;;
16854;SDS011;8543;54.522;18.550;2022-08-23T15:17:30;11.10;;;5.50;;
16854;SDS011;8543;54.522;18.550;2022-08-23T15:20:00;10.00;;;5.70;;
16854;SDS011;8543;54.522;18.550;2022-08-23T15:22:25;16.50;;;7.00;;
16854;SDS011;8543;54.522;18.550;2022-08-23T15:24:51;13.80;;;6.30;;
16854;SDS011;8543;54.522;18.550;2022-08-23T15:27:16;13.50;;;6.10;;
16854;SDS011;8543;54.522;18.550;2022-08-23T15:29:42;13.00;;;5.90;;
16854;SDS011;8543;54.522;18.550;2022-08-23T15:32:08;14.60;;;5.90;;
16854;SDS011;8543;54.522;18.550;2022-08-23T15:34:33;13.30;;;6.40;;
16854;SDS011;8543;54.522;18.550;2022-08-23T15:36:58;13.20;;;5.90;;
16854;SDS011;8543;54.522;18.550;2022-08-23T15:39:24;12.40;;;5.90;;
16854;SDS011;8543;54.522;18.550;2022-08-23T15:41:49;15.80;;;6.70;;
16854;SDS011;8543;54.522;18.550;2022-08-23T15:44:15;15.60;;;6.90;;
16854;SDS011;8543;54.522;18.550;2022-08-23T15:46:40;12.30;;;6.30;;
16854;SDS011;8543;54.522;18.550;2022-08-23T15:49:11;15.90;;;6.50;;
16854;SDS011;8543;54.522;18.550;2022-08-23T15:51:38;17.20;;;6.30;;
16854;SDS011;8543;54.522;18.550;2022-08-23T15:54:04;14.70;;;5.90;;
16854;SDS011;8543;54.522;18.550;2022-08-23T15:56:31;12.70;;;6.60;;
16854;SDS011;8543;54.522;18.550;2022-08-23T16:03:57;13.80;;;6.40;;
16854;SDS011;8543;54.522;18.550;2022-08-23T16:06:23;9.70;;;6.00;;
16854;SDS011;8543;54.522;18.550;2022-08-23T16:08:50;12.20;;;5.80;;
16854;SDS011;8543;54.522;18.550;2022-08-23T16:11:16;13.00;;;5.80;;
16854;SDS011;8543;54.522;18.550;2022-08-23T16:13:42;14.20;;;5.90;;
16854;SDS011;8543;54.522;18.550;2022-08-23T16:16:15;11.50;;;5.30;;
16854;SDS011;8543;54.522;18.550;2022-08-23T16:18:41;12.50;;;6.00;;
16854;SDS011;8543;54.522;18.550;2022-08-23T16:21:07;14.40;;;6.20;;
16854;SDS011;8543;54.522;18.550;2022-08-23T16:23:32;14.90;;;6.60;;